sensor_id;sensor_type;location;lat;lon;timestamp;temperature;humidity
1626;DHT22;806;48.770;9.156;2024-03-17T00:00:07;9.40;99.90
1626;DHT22;806;48.770;9.156;2024-03-17T00:02:36;9.30;67.90
1626;DHT22;806;48.770;9.156;2024-03-17T00:05:03;9.20;83.30
1626;DHT22;806;48.770;9.156;2024-03-17T00:07:31;9.20;86.20
1626;DHT22;806;48.770;9.156;2024-03-17T00:09:58;9.20;87.40
1626;DHT22;806;48.770;9.156;2024-03-17T00:12:24;9.20;92.40
1626;DHT22;806;48.770;9.156;2024-03-17T00:14:52;9.10;92.60
1626;DHT22;806;48.770;9.156;2024-03-17T00:17:18;9.10;99.90
1626;DHT22;806;48.770;9.156;2024-03-17T00:19:46;9.10;99.90
1626;DHT22;806;48.770;9.156;2024-03-17T00:22:12;9.20;99.90
1626;DHT22;806;48.770;9.156;2024-03-17T00:24:43;9.20;95.50
1626;DHT22;806;48.770;9.156;2024-03-17T00:27:09;9.20;96.20
1626;DHT22;806;48.770;9.156;2024-03-17T00:29:38;9.30;99.90
1626;DHT22;806;48.770;9.156;2024-03-17T00:32:05;9.40;93.50
1626;DHT22;806;48.770;9.156;2024-03-17T00:34:32;9.40;99.90
1626;DHT22;806;48.770;9.156;2024-03-17T00:36:58;9.30;99.90
1626;DHT22;806;48.770;9.156;2024-03-17T00:39:28;9.30;87.80
1626;DHT22;806;48.770;9.156;2024-03-17T00:41:56;9.40;92.10
1626;DHT22;806;48.770;9.156;2024-03-17T00:44:24;9.40;99.90
1626;DHT22;806;48.770;9.156;2024-03-17T00:46:50;9.40;99.90
1626;DHT22;806;48.770;9.156;2024-03-17T00:49:17;9.50;99.90
1626;DHT22;806;48.770;9.156;2024-03-17T00:51:43;9.50;99.90
1626;DHT22;806;48.770;9.156;2024-03-17T00:54:13;9.40;99.90
1626;DHT22;806;48.770;9.156;2024-03-17T00:56:40;9.30;99.90
1626;DHT22;806;48.770;9.156;2024-03-17T00:59:08;9.30;99.90
1626;DHT22;806;48.770;9.156;2024-03-17T01:01:34;9.00;99.90
1626;DHT22;806;48.770;9.156;2024-03-17T01:04:01;8.90;99.90
1626;DHT22;806;48.770;9.156;2024-03-17T01:06:27;8.90;87.00
1626;DHT22;806;48.770;9.156;2024-03-17T01:08:54;8.80;74.00
1626;DHT22;806;48.770;9.156;2024-03-17T01:11:20;8.80;99.90
1626;DHT22;806;48.770;9.156;2024-03-17T01:13:47;8.80;99.90
1626;DHT22;806;48.770;9.156;2024-03-17T01:16:15;8.80;99.90
1626;DHT22;806;48.770;9.156;2024-03-17T01:18:43;8.80;82.90
1626;DHT22;806;48.770;9.156;2024-03-17T01:21:11;8.90;92.80
1626;DHT22;806;48.770;9.156;2024-03-17T01:23:38;9.00;92.30
1626;DHT22;806;48.770;9.156;2024-03-17T01:26:04;9.10;99.90
1626;DHT22;806;48.770;9.156;2024-03-17T01:28:31;9.20;99.90
1626;DHT22;806;48.770;9.156;2024-03-17T01:30:57;9.20;99.90
1626;DHT22;806;48.770;9.156;2024-03-17T01:33:26;9.20;99.90
1626;DHT22;806;48.770;9.156;2024-03-17T01:35:52;9.20;99.90
1626;DHT22;806;48.770;9.156;2024-03-17T01:38:19;9.40;99.90
1626;DHT22;806;48.770;9.156;2024-03-17T01:40:45;9.40;99.90
1626;DHT22;806;48.770;9.156;2024-03-17T01:43:14;9.20;99.90
1626;DHT22;806;48.770;9.156;2024-03-17T01:45:40;9.10;99.90
1626;DHT22;806;48.770;9.156;2024-03-17T01:48:13;8.90;99.90
1626;DHT22;806;48.770;9.156;2024-03-17T01:50:42;9.00;49.50
1626;DHT22;806;48.770;9.156;2024-03-17T01:53:11;9.00;99.90
1626;DHT22;806;48.770;9.156;2024-03-17T01:55:40;9.10;99.90
1626;DHT22;806;48.770;9.156;2024-03-17T01:58:09;9.00;99.90
1626;DHT22;806;48.770;9.156;2024-03-17T02:00:36;9.00;99.90
1626;DHT22;806;48.770;9.156;2024-03-17T02:03:04;9.00;99.90
1626;DHT22;806;48.770;9.156;2024-03-17T02:05:30;9.00;99.90
1626;DHT22;806;48.770;9.156;2024-03-17T02:07:59;9.00;99.90
1626;DHT22;806;48.770;9.156;2024-03-17T02:10:25;9.10;99.90
1626;DHT22;806;48.770;9.156;2024-03-17T02:12:52;9.20;99.90
1626;DHT22;806;48.770;9.156;2024-03-17T02:15:19;9.30;99.90
1626;DHT22;806;48.770;9.156;2024-03-17T02:17:46;9.40;99.90
1626;DHT22;806;48.770;9.156;2024-03-17T02:20:12;9.40;99.90
1626;DHT22;806;48.770;9.156;2024-03-17T02:22:41;9.50;99.90
1626;DHT22;806;48.770;9.156;2024-03-17T02:25:07;9.60;99.90
1626;DHT22;806;48.770;9.156;2024-03-17T02:27:34;9.60;99.90
1626;DHT22;806;48.770;9.156;2024-03-17T02:30:01;9.50;99.90
1626;DHT22;806;48.770;9.156;2024-03-17T02:32:28;9.50;99.90
1626;DHT22;806;48.770;9.156;2024-03-17T02:34:54;9.40;99.90
1626;DHT22;806;48.770;9.156;2024-03-17T02:37:22;9.30;99.90
1626;DHT22;806;48.770;9.156;2024-03-17T02:39:50;9.30;8.10
1626;DHT22;806;48.770;9.156;2024-03-17T02:42:17;9.30;11.50
1626;DHT22;806;48.770;9.156;2024-03-17T02:44:44;9.20;99.90
1626;DHT22;806;48.770;9.156;2024-03-17T02:47:11;9.30;99.90
1626;DHT22;806;48.770;9.156;2024-03-17T02:49:40;9.40;19.80
1626;DHT22;806;48.770;9.156;2024-03-17T02:52:10;9.40;99.90
1626;DHT22;806;48.770;9.156;2024-03-17T02:54:38;9.40;99.90
1626;DHT22;806;48.770;9.156;2024-03-17T02:57:07;9.20;2.40
1626;DHT22;806;48.770;9.156;2024-03-17T02:59:34;9.10;22.40
1626;DHT22;806;48.770;9.156;2024-03-17T03:02:02;9.20;28.70
1626;DHT22;806;48.770;9.156;2024-03-17T03:04:30;9.20;25.90
1626;DHT22;806;48.770;9.156;2024-03-17T03:06:57;9.30;99.90
1626;DHT22;806;48.770;9.156;2024-03-17T03:09:24;9.20;19.60
1626;DHT22;806;48.770;9.156;2024-03-17T03:11:57;9.10;99.90
1626;DHT22;806;48.770;9.156;2024-03-17T03:14:25;9.00;99.90
1626;DHT22;806;48.770;9.156;2024-03-17T03:16:53;8.90;27.30
1626;DHT22;806;48.770;9.156;2024-03-17T03:19:20;9.00;25.10
1626;DHT22;806;48.770;9.156;2024-03-17T03:21:47;8.80;26.70
1626;DHT22;806;48.770;9.156;2024-03-17T03:24:14;8.90;47.20
1626;DHT22;806;48.770;9.156;2024-03-17T03:26:42;8.90;42.10
1626;DHT22;806;48.770;9.156;2024-03-17T03:29:09;9.00;45.50
1626;DHT22;806;48.770;9.156;2024-03-17T03:31:38;9.10;42.60
1626;DHT22;806;48.770;9.156;2024-03-17T03:34:06;9.20;99.90
1626;DHT22;806;48.770;9.156;2024-03-17T03:36:35;9.10;99.90
1626;DHT22;806;48.770;9.156;2024-03-17T03:39:02;9.20;99.90
1626;DHT22;806;48.770;9.156;2024-03-17T03:41:31;9.20;99.90
1626;DHT22;806;48.770;9.156;2024-03-17T03:43:58;9.20;99.90
1626;DHT22;806;48.770;9.156;2024-03-17T03:46:26;9.10;99.90
1626;DHT22;806;48.770;9.156;2024-03-17T03:48:54;9.10;21.50
1626;DHT22;806;48.770;9.156;2024-03-17T03:51:21;9.10;30.00
1626;DHT22;806;48.770;9.156;2024-03-17T03:53:51;9.10;27.50
1626;DHT22;806;48.770;9.156;2024-03-17T03:56:18;9.10;99.90
1626;DHT22;806;48.770;9.156;2024-03-17T03:58:46;9.00;27.80
1626;DHT22;806;48.770;9.156;2024-03-17T04:01:15;9.00;42.90
1626;DHT22;806;48.770;9.156;2024-03-17T04:03:47;9.00;44.20
1626;DHT22;806;48.770;9.156;2024-03-17T04:06:16;9.00;99.90
1626;DHT22;806;48.770;9.156;2024-03-17T04:08:43;8.80;99.90
1626;DHT22;806;48.770;9.156;2024-03-17T04:11:10;8.70;28.70
1626;DHT22;806;48.770;9.156;2024-03-17T04:13:38;8.70;54.40
1626;DHT22;806;48.770;9.156;2024-03-17T04:16:07;8.70;60.20
1626;DHT22;806;48.770;9.156;2024-03-17T04:18:36;8.80;62.30
1626;DHT22;806;48.770;9.156;2024-03-17T04:21:05;8.90;44.70
1626;DHT22;806;48.770;9.156;2024-03-17T04:23:34;8.90;39.90
1626;DHT22;806;48.770;9.156;2024-03-17T04:26:04;8.80;99.90
1626;DHT22;806;48.770;9.156;2024-03-17T04:28:33;8.70;99.90
1626;DHT22;806;48.770;9.156;2024-03-17T04:31:03;8.60;37.90
1626;DHT22;806;48.770;9.156;2024-03-17T04:33:31;8.60;54.80
1626;DHT22;806;48.770;9.156;2024-03-17T04:35:58;8.70;67.40
1626;DHT22;806;48.770;9.156;2024-03-17T04:38:26;8.80;64.60
1626;DHT22;806;48.770;9.156;2024-03-17T04:40:56;8.70;47.60
1626;DHT22;806;48.770;9.156;2024-03-17T04:43:30;8.70;49.80
1626;DHT22;806;48.770;9.156;2024-03-17T04:46:02;8.80;55.60
1626;DHT22;806;48.770;9.156;2024-03-17T04:48:30;8.80;99.90
1626;DHT22;806;48.770;9.156;2024-03-17T04:50:58;8.70;99.90
1626;DHT22;806;48.770;9.156;2024-03-17T04:53:25;8.60;99.90
1626;DHT22;806;48.770;9.156;2024-03-17T04:56:02;8.50;70.90
1626;DHT22;806;48.770;9.156;2024-03-17T04:58:30;8.60;84.20
1626;DHT22;806;48.770;9.156;2024-03-17T05:00:57;8.60;51.60
1626;DHT22;806;48.770;9.156;2024-03-17T05:03:24;8.60;41.60
1626;DHT22;806;48.770;9.156;2024-03-17T05:05:58;8.50;40.90
1626;DHT22;806;48.770;9.156;2024-03-17T05:08:28;8.50;62.40
1626;DHT22;806;48.770;9.156;2024-03-17T05:10:58;8.40;55.40
1626;DHT22;806;48.770;9.156;2024-03-17T05:13:27;8.40;40.90
1626;DHT22;806;48.770;9.156;2024-03-17T05:15:54;8.20;48.00
1626;DHT22;806;48.770;9.156;2024-03-17T05:18:22;8.10;55.30
1626;DHT22;806;48.770;9.156;2024-03-17T05:20:57;8.10;89.50
1626;DHT22;806;48.770;9.156;2024-03-17T05:23:25;8.20;95.20
1626;DHT22;806;48.770;9.156;2024-03-17T05:25:53;8.30;91.90
1626;DHT22;806;48.770;9.156;2024-03-17T05:28:20;8.20;84.60
1626;DHT22;806;48.770;9.156;2024-03-17T05:30:49;8.20;93.80
1626;DHT22;806;48.770;9.156;2024-03-17T05:33:18;8.20;99.90
1626;DHT22;806;48.770;9.156;2024-03-17T05:35:50;8.40;99.90
1626;DHT22;806;48.770;9.156;2024-03-17T05:38:18;8.50;92.40
1626;DHT22;806;48.770;9.156;2024-03-17T05:40:55;8.50;69.40
1626;DHT22;806;48.770;9.156;2024-03-17T05:43:23;8.70;71.60
1626;DHT22;806;48.770;9.156;2024-03-17T05:45:52;8.80;69.50
1626;DHT22;806;48.770;9.156;2024-03-17T05:48:20;9.00;51.40
1626;DHT22;806;48.770;9.156;2024-03-17T05:50:47;9.00;99.90
1626;DHT22;806;48.770;9.156;2024-03-17T05:53:14;8.90;99.90
1626;DHT22;806;48.770;9.156;2024-03-17T05:55:41;8.70;99.90
1626;DHT22;806;48.770;9.156;2024-03-17T05:58:08;8.60;28.60
1626;DHT22;806;48.770;9.156;2024-03-17T06:00:36;8.50;36.00
1626;DHT22;806;48.770;9.156;2024-03-17T06:03:06;8.50;69.80
1626;DHT22;806;48.770;9.156;2024-03-17T06:05:33;8.60;55.40
1626;DHT22;806;48.770;9.156;2024-03-17T06:08:01;8.40;34.60
1626;DHT22;806;48.770;9.156;2024-03-17T06:10:29;8.30;59.10
1626;DHT22;806;48.770;9.156;2024-03-17T06:12:56;8.30;56.60
1626;DHT22;806;48.770;9.156;2024-03-17T06:15:23;8.30;71.00
1626;DHT22;806;48.770;9.156;2024-03-17T06:17:50;8.40;84.10
1626;DHT22;806;48.770;9.156;2024-03-17T06:20:20;8.50;76.40
1626;DHT22;806;48.770;9.156;2024-03-17T06:22:47;8.40;50.90
1626;DHT22;806;48.770;9.156;2024-03-17T06:25:14;8.40;50.80
1626;DHT22;806;48.770;9.156;2024-03-17T06:27:42;8.30;63.00
1626;DHT22;806;48.770;9.156;2024-03-17T06:30:11;8.30;92.20
1626;DHT22;806;48.770;9.156;2024-03-17T06:32:40;8.20;91.10
1626;DHT22;806;48.770;9.156;2024-03-17T06:35:07;8.20;99.90
1626;DHT22;806;48.770;9.156;2024-03-17T06:37:36;8.40;99.90
1626;DHT22;806;48.770;9.156;2024-03-17T06:40:04;8.40;93.20
1626;DHT22;806;48.770;9.156;2024-03-17T06:42:32;8.30;49.20
1626;DHT22;806;48.770;9.156;2024-03-17T06:44:59;8.20;59.20
1626;DHT22;806;48.770;9.156;2024-03-17T06:47:26;8.10;93.50
1626;DHT22;806;48.770;9.156;2024-03-17T06:49:53;8.10;99.90
1626;DHT22;806;48.770;9.156;2024-03-17T06:52:21;8.20;99.90
1626;DHT22;806;48.770;9.156;2024-03-17T06:54:49;8.20;99.90
1626;DHT22;806;48.770;9.156;2024-03-17T06:57:16;8.20;99.90
1626;DHT22;806;48.770;9.156;2024-03-17T06:59:43;8.20;99.90
1626;DHT22;806;48.770;9.156;2024-03-17T07:02:11;8.40;99.90
1626;DHT22;806;48.770;9.156;2024-03-17T07:04:43;8.70;99.90
1626;DHT22;806;48.770;9.156;2024-03-17T07:07:10;9.10;99.90
1626;DHT22;806;48.770;9.156;2024-03-17T07:09:38;9.20;57.50
1626;DHT22;806;48.770;9.156;2024-03-17T07:12:08;9.20;46.20
1626;DHT22;806;48.770;9.156;2024-03-17T07:14:35;9.20;44.70
1626;DHT22;806;48.770;9.156;2024-03-17T07:17:03;9.20;48.10
1626;DHT22;806;48.770;9.156;2024-03-17T07:19:30;9.20;54.50
1626;DHT22;806;48.770;9.156;2024-03-17T07:21:58;9.30;60.00
1626;DHT22;806;48.770;9.156;2024-03-17T07:24:25;9.40;99.90
1626;DHT22;806;48.770;9.156;2024-03-17T07:26:53;9.30;99.90
1626;DHT22;806;48.770;9.156;2024-03-17T07:29:21;9.20;99.90
1626;DHT22;806;48.770;9.156;2024-03-17T07:31:48;9.30;59.70
1626;DHT22;806;48.770;9.156;2024-03-17T07:34:15;9.30;56.20
1626;DHT22;806;48.770;9.156;2024-03-17T07:36:42;9.50;84.00
1626;DHT22;806;48.770;9.156;2024-03-17T07:39:10;9.70;36.40
1626;DHT22;806;48.770;9.156;2024-03-17T07:41:37;9.70;99.90
1626;DHT22;806;48.770;9.156;2024-03-17T07:44:04;9.70;99.90
1626;DHT22;806;48.770;9.156;2024-03-17T07:46:33;9.70;99.90
1626;DHT22;806;48.770;9.156;2024-03-17T07:49:00;9.70;99.90
1626;DHT22;806;48.770;9.156;2024-03-17T07:51:27;10.00;43.30
1626;DHT22;806;48.770;9.156;2024-03-17T07:53:54;10.20;99.90
1626;DHT22;806;48.770;9.156;2024-03-17T07:56:23;10.30;99.90
1626;DHT22;806;48.770;9.156;2024-03-17T07:58:51;10.30;99.90
1626;DHT22;806;48.770;9.156;2024-03-17T08:01:18;10.30;99.90
1626;DHT22;806;48.770;9.156;2024-03-17T08:03:46;10.10;99.90
1626;DHT22;806;48.770;9.156;2024-03-17T08:06:15;10.00;9.40
1626;DHT22;806;48.770;9.156;2024-03-17T08:08:42;10.10;99.90
1626;DHT22;806;48.770;9.156;2024-03-17T08:11:09;10.20;99.90
1626;DHT22;806;48.770;9.156;2024-03-17T08:13:36;10.30;99.90
1626;DHT22;806;48.770;9.156;2024-03-17T08:16:03;10.50;99.90
1626;DHT22;806;48.770;9.156;2024-03-17T08:18:32;10.70;99.90
1626;DHT22;806;48.770;9.156;2024-03-17T08:21:01;10.90;99.90
1626;DHT22;806;48.770;9.156;2024-03-17T08:23:30;11.20;99.90
1626;DHT22;806;48.770;9.156;2024-03-17T08:25:59;11.20;99.90
1626;DHT22;806;48.770;9.156;2024-03-17T08:28:27;11.20;99.90
1626;DHT22;806;48.770;9.156;2024-03-17T08:30:55;11.10;99.90
1626;DHT22;806;48.770;9.156;2024-03-17T08:33:22;10.90;99.90
1626;DHT22;806;48.770;9.156;2024-03-17T08:35:53;10.90;1.00
1626;DHT22;806;48.770;9.156;2024-03-17T08:38:23;11.10;1.00
1626;DHT22;806;48.770;9.156;2024-03-17T08:40:50;11.20;99.90
1626;DHT22;806;48.770;9.156;2024-03-17T08:43:17;11.30;99.90
1626;DHT22;806;48.770;9.156;2024-03-17T08:45:45;11.50;99.90
1626;DHT22;806;48.770;9.156;2024-03-17T08:48:12;11.70;99.90
1626;DHT22;806;48.770;9.156;2024-03-17T08:50:39;12.10;99.90
1626;DHT22;806;48.770;9.156;2024-03-17T08:53:06;12.40;99.90
1626;DHT22;806;48.770;9.156;2024-03-17T08:55:35;12.50;99.90
1626;DHT22;806;48.770;9.156;2024-03-17T08:58:02;12.60;99.90
1626;DHT22;806;48.770;9.156;2024-03-17T09:00:28;12.70;99.90
1626;DHT22;806;48.770;9.156;2024-03-17T09:02:57;12.60;99.90
1626;DHT22;806;48.770;9.156;2024-03-17T09:05:24;12.50;99.90
1626;DHT22;806;48.770;9.156;2024-03-17T09:07:51;12.30;99.90
1626;DHT22;806;48.770;9.156;2024-03-17T09:10:18;12.40;99.90
1626;DHT22;806;48.770;9.156;2024-03-17T09:12:47;12.60;99.90
1626;DHT22;806;48.770;9.156;2024-03-17T09:15:15;12.60;99.90
1626;DHT22;806;48.770;9.156;2024-03-17T09:17:42;12.70;99.90
1626;DHT22;806;48.770;9.156;2024-03-17T09:20:11;12.70;99.90
1626;DHT22;806;48.770;9.156;2024-03-17T09:22:40;12.70;99.90
1626;DHT22;806;48.770;9.156;2024-03-17T09:25:08;12.80;99.90
1626;DHT22;806;48.770;9.156;2024-03-17T09:27:35;12.80;99.90
1626;DHT22;806;48.770;9.156;2024-03-17T09:30:05;13.00;99.90
1626;DHT22;806;48.770;9.156;2024-03-17T09:32:35;12.90;99.90
1626;DHT22;806;48.770;9.156;2024-03-17T09:35:03;12.70;99.90
1626;DHT22;806;48.770;9.156;2024-03-17T09:37:30;12.70;99.90
1626;DHT22;806;48.770;9.156;2024-03-17T09:39:57;12.90;99.90
1626;DHT22;806;48.770;9.156;2024-03-17T09:42:26;12.90;99.90
1626;DHT22;806;48.770;9.156;2024-03-17T09:44:54;12.90;99.90
1626;DHT22;806;48.770;9.156;2024-03-17T09:47:24;12.90;99.90
1626;DHT22;806;48.770;9.156;2024-03-17T09:49:52;13.10;99.90
1626;DHT22;806;48.770;9.156;2024-03-17T09:52:21;13.20;99.90
1626;DHT22;806;48.770;9.156;2024-03-17T09:54:53;13.30;99.90
1626;DHT22;806;48.770;9.156;2024-03-17T09:57:22;13.40;99.90
1626;DHT22;806;48.770;9.156;2024-03-17T09:59:51;13.50;99.90
1626;DHT22;806;48.770;9.156;2024-03-17T10:02:19;13.70;99.90
1626;DHT22;806;48.770;9.156;2024-03-17T10:04:48;13.90;99.90
1626;DHT22;806;48.770;9.156;2024-03-17T10:07:15;14.00;99.90
1626;DHT22;806;48.770;9.156;2024-03-17T10:09:43;14.00;99.90
1626;DHT22;806;48.770;9.156;2024-03-17T10:12:29;14.10;99.90
1626;DHT22;806;48.770;9.156;2024-03-17T10:15:00;13.80;99.90
1626;DHT22;806;48.770;9.156;2024-03-17T10:17:31;13.50;99.90
1626;DHT22;806;48.770;9.156;2024-03-17T10:20:16;13.40;99.90
1626;DHT22;806;48.770;9.156;2024-03-17T10:23:17;13.70;99.90
1626;DHT22;806;48.770;9.156;2024-03-17T10:25:54;13.90;99.90
1626;DHT22;806;48.770;9.156;2024-03-17T10:28:27;14.10;99.90
1626;DHT22;806;48.770;9.156;2024-03-17T10:31:11;14.20;99.90
1626;DHT22;806;48.770;9.156;2024-03-17T10:33:38;14.10;99.90
1626;DHT22;806;48.770;9.156;2024-03-17T10:36:20;14.20;99.90
1626;DHT22;806;48.770;9.156;2024-03-17T10:38:51;14.50;99.90
1626;DHT22;806;48.770;9.156;2024-03-17T10:41:25;14.60;99.90
1626;DHT22;806;48.770;9.156;2024-03-17T10:43:54;14.40;99.90
1626;DHT22;806;48.770;9.156;2024-03-17T10:46:23;14.40;99.90
1626;DHT22;806;48.770;9.156;2024-03-17T10:48:54;14.60;99.90
1626;DHT22;806;48.770;9.156;2024-03-17T10:51:26;14.70;99.90
1626;DHT22;806;48.770;9.156;2024-03-17T10:53:54;14.50;99.90
1626;DHT22;806;48.770;9.156;2024-03-17T10:56:24;14.40;99.90
1626;DHT22;806;48.770;9.156;2024-03-17T10:58:53;14.20;99.90
1626;DHT22;806;48.770;9.156;2024-03-17T11:01:44;14.30;99.90
1626;DHT22;806;48.770;9.156;2024-03-17T11:04:14;14.80;99.90
1626;DHT22;806;48.770;9.156;2024-03-17T11:06:43;15.20;99.90
1626;DHT22;806;48.770;9.156;2024-03-17T11:09:17;15.10;99.90
1626;DHT22;806;48.770;9.156;2024-03-17T11:11:46;15.20;99.90
1626;DHT22;806;48.770;9.156;2024-03-17T11:14:17;15.30;99.90
1626;DHT22;806;48.770;9.156;2024-03-17T11:16:49;15.30;99.90
1626;DHT22;806;48.770;9.156;2024-03-17T11:19:19;15.30;99.90
1626;DHT22;806;48.770;9.156;2024-03-17T11:21:50;15.50;99.90
1626;DHT22;806;48.770;9.156;2024-03-17T11:24:27;15.70;99.90
1626;DHT22;806;48.770;9.156;2024-03-17T11:26:54;15.90;99.90
1626;DHT22;806;48.770;9.156;2024-03-17T11:29:30;15.80;99.90
1626;DHT22;806;48.770;9.156;2024-03-17T11:31:59;15.80;99.90
1626;DHT22;806;48.770;9.156;2024-03-17T11:34:28;15.60;99.90
1626;DHT22;806;48.770;9.156;2024-03-17T11:37:42;15.80;99.90
1626;DHT22;806;48.770;9.156;2024-03-17T11:40:24;16.20;99.90
1626;DHT22;806;48.770;9.156;2024-03-17T11:43:03;16.30;99.90
1626;DHT22;806;48.770;9.156;2024-03-17T11:45:34;16.10;99.90
1626;DHT22;806;48.770;9.156;2024-03-17T11:48:14;15.90;99.90
1626;DHT22;806;48.770;9.156;2024-03-17T11:50:45;15.80;99.90
1626;DHT22;806;48.770;9.156;2024-03-17T11:53:13;15.60;99.90
1626;DHT22;806;48.770;9.156;2024-03-17T11:55:48;15.60;99.90
1626;DHT22;806;48.770;9.156;2024-03-17T11:58:16;15.60;99.90
1626;DHT22;806;48.770;9.156;2024-03-17T12:00:54;15.50;99.90
1626;DHT22;806;48.770;9.156;2024-03-17T12:03:21;15.50;99.90
1626;DHT22;806;48.770;9.156;2024-03-17T12:05:55;15.50;99.90
1626;DHT22;806;48.770;9.156;2024-03-17T12:08:23;15.50;99.90
1626;DHT22;806;48.770;9.156;2024-03-17T12:11:17;15.50;99.90
1626;DHT22;806;48.770;9.156;2024-03-17T12:13:48;15.50;99.90
1626;DHT22;806;48.770;9.156;2024-03-17T12:16:16;15.50;99.90
1626;DHT22;806;48.770;9.156;2024-03-17T12:18:42;15.50;99.90
1626;DHT22;806;48.770;9.156;2024-03-17T12:21:15;15.30;99.90
1626;DHT22;806;48.770;9.156;2024-03-17T12:23:42;15.30;99.90
1626;DHT22;806;48.770;9.156;2024-03-17T12:26:16;15.30;99.90
1626;DHT22;806;48.770;9.156;2024-03-17T12:28:46;15.40;99.90
1626;DHT22;806;48.770;9.156;2024-03-17T12:31:14;15.40;99.90
1626;DHT22;806;48.770;9.156;2024-03-17T12:33:53;15.20;99.90
1626;DHT22;806;48.770;9.156;2024-03-17T12:36:23;15.30;99.90
1626;DHT22;806;48.770;9.156;2024-03-17T12:38:54;15.40;99.90
1626;DHT22;806;48.770;9.156;2024-03-17T12:41:43;15.60;99.90
1626;DHT22;806;48.770;9.156;2024-03-17T12:44:23;15.60;99.90
1626;DHT22;806;48.770;9.156;2024-03-17T12:46:56;15.50;99.90
1626;DHT22;806;48.770;9.156;2024-03-17T12:49:23;15.30;99.90
1626;DHT22;806;48.770;9.156;2024-03-17T12:51:58;15.30;99.90
1626;DHT22;806;48.770;9.156;2024-03-17T12:54:29;15.40;99.90
1626;DHT22;806;48.770;9.156;2024-03-17T12:57:06;15.40;99.90
1626;DHT22;806;48.770;9.156;2024-03-17T12:59:51;15.20;99.90
1626;DHT22;806;48.770;9.156;2024-03-17T13:02:41;15.40;99.90
1626;DHT22;806;48.770;9.156;2024-03-17T13:05:30;15.50;99.90
1626;DHT22;806;48.770;9.156;2024-03-17T13:08:15;15.40;99.90
1626;DHT22;806;48.770;9.156;2024-03-17T13:10:43;15.50;99.90
1626;DHT22;806;48.770;9.156;2024-03-17T13:13:19;15.40;99.90
1626;DHT22;806;48.770;9.156;2024-03-17T13:15:49;15.40;99.90
1626;DHT22;806;48.770;9.156;2024-03-17T13:18:19;15.30;99.90
1626;DHT22;806;48.770;9.156;2024-03-17T13:20:57;15.10;99.90
1626;DHT22;806;48.770;9.156;2024-03-17T13:23:26;15.50;99.90
1626;DHT22;806;48.770;9.156;2024-03-17T13:25:58;15.70;99.90
1626;DHT22;806;48.770;9.156;2024-03-17T13:28:26;15.70;99.90
1626;DHT22;806;48.770;9.156;2024-03-17T13:30:53;15.70;99.90
1626;DHT22;806;48.770;9.156;2024-03-17T13:33:21;15.70;99.90
1626;DHT22;806;48.770;9.156;2024-03-17T13:35:50;15.80;99.90
1626;DHT22;806;48.770;9.156;2024-03-17T13:38:18;15.60;99.90
1626;DHT22;806;48.770;9.156;2024-03-17T13:40:52;15.50;99.90
1626;DHT22;806;48.770;9.156;2024-03-17T13:43:26;15.50;99.90
1626;DHT22;806;48.770;9.156;2024-03-17T13:46:02;15.50;99.90
1626;DHT22;806;48.770;9.156;2024-03-17T13:48:39;15.30;99.90
1626;DHT22;806;48.770;9.156;2024-03-17T13:51:09;15.30;99.90
1626;DHT22;806;48.770;9.156;2024-03-17T13:53:36;15.40;99.90
1626;DHT22;806;48.770;9.156;2024-03-17T13:56:04;15.50;99.90
1626;DHT22;806;48.770;9.156;2024-03-17T13:58:35;15.70;99.90
1626;DHT22;806;48.770;9.156;2024-03-17T14:01:03;15.50;99.90
1626;DHT22;806;48.770;9.156;2024-03-17T14:03:30;15.50;99.90
1626;DHT22;806;48.770;9.156;2024-03-17T14:05:58;15.40;99.90
1626;DHT22;806;48.770;9.156;2024-03-17T14:08:26;15.40;99.90
1626;DHT22;806;48.770;9.156;2024-03-17T14:10:56;15.40;99.90
1626;DHT22;806;48.770;9.156;2024-03-17T14:13:27;15.30;99.90
1626;DHT22;806;48.770;9.156;2024-03-17T14:15:59;15.30;99.90
1626;DHT22;806;48.770;9.156;2024-03-17T14:18:31;15.40;99.90
1626;DHT22;806;48.770;9.156;2024-03-17T14:21:00;15.70;99.90
1626;DHT22;806;48.770;9.156;2024-03-17T14:23:34;15.90;99.90
1626;DHT22;806;48.770;9.156;2024-03-17T14:26:10;16.00;99.90
1626;DHT22;806;48.770;9.156;2024-03-17T14:28:42;15.80;99.90
1626;DHT22;806;48.770;9.156;2024-03-17T14:31:11;15.90;99.90
1626;DHT22;806;48.770;9.156;2024-03-17T14:33:42;16.00;99.90
1626;DHT22;806;48.770;9.156;2024-03-17T14:36:11;16.00;99.90
1626;DHT22;806;48.770;9.156;2024-03-17T14:38:41;16.20;99.90
1626;DHT22;806;48.770;9.156;2024-03-17T14:41:09;16.30;99.90
1626;DHT22;806;48.770;9.156;2024-03-17T14:43:38;16.30;99.90
1626;DHT22;806;48.770;9.156;2024-03-17T14:46:05;16.40;99.90
1626;DHT22;806;48.770;9.156;2024-03-17T14:48:36;16.50;99.90
1626;DHT22;806;48.770;9.156;2024-03-17T14:51:06;16.30;99.90
1626;DHT22;806;48.770;9.156;2024-03-17T14:53:34;16.20;99.90
1626;DHT22;806;48.770;9.156;2024-03-17T14:56:03;16.10;99.90
1626;DHT22;806;48.770;9.156;2024-03-17T14:58:32;16.00;99.90
1626;DHT22;806;48.770;9.156;2024-03-17T15:00:59;15.90;99.90
1626;DHT22;806;48.770;9.156;2024-03-17T15:03:29;15.70;99.90
1626;DHT22;806;48.770;9.156;2024-03-17T15:05:58;15.50;99.90
1626;DHT22;806;48.770;9.156;2024-03-17T15:08:29;15.50;99.90
1626;DHT22;806;48.770;9.156;2024-03-17T15:10:57;15.60;99.90
1626;DHT22;806;48.770;9.156;2024-03-17T15:13:39;15.70;99.90
1626;DHT22;806;48.770;9.156;2024-03-17T15:16:11;15.50;99.90
1626;DHT22;806;48.770;9.156;2024-03-17T15:18:47;15.20;99.90
1626;DHT22;806;48.770;9.156;2024-03-17T15:21:24;15.10;99.90
1626;DHT22;806;48.770;9.156;2024-03-17T15:23:55;15.00;99.90
1626;DHT22;806;48.770;9.156;2024-03-17T15:26:22;15.00;99.90
1626;DHT22;806;48.770;9.156;2024-03-17T15:28:50;14.80;99.90
1626;DHT22;806;48.770;9.156;2024-03-17T15:31:21;15.00;99.90
1626;DHT22;806;48.770;9.156;2024-03-17T15:33:51;15.10;99.90
1626;DHT22;806;48.770;9.156;2024-03-17T15:36:21;15.20;99.90
1626;DHT22;806;48.770;9.156;2024-03-17T15:38:51;15.20;99.90
1626;DHT22;806;48.770;9.156;2024-03-17T15:41:19;15.20;99.90
1626;DHT22;806;48.770;9.156;2024-03-17T15:43:53;15.20;99.90
1626;DHT22;806;48.770;9.156;2024-03-17T15:46:23;15.40;99.90
1626;DHT22;806;48.770;9.156;2024-03-17T15:48:50;15.30;99.90
1626;DHT22;806;48.770;9.156;2024-03-17T15:51:22;15.30;99.90
1626;DHT22;806;48.770;9.156;2024-03-17T15:54:04;15.30;99.90
1626;DHT22;806;48.770;9.156;2024-03-17T15:56:32;15.30;99.90
1626;DHT22;806;48.770;9.156;2024-03-17T15:58:59;15.00;99.90
1626;DHT22;806;48.770;9.156;2024-03-17T16:01:27;14.80;99.90
1626;DHT22;806;48.770;9.156;2024-03-17T16:03:56;14.90;99.90
1626;DHT22;806;48.770;9.156;2024-03-17T16:06:25;14.80;99.90
1626;DHT22;806;48.770;9.156;2024-03-17T16:08:52;14.70;99.90
1626;DHT22;806;48.770;9.156;2024-03-17T16:11:27;14.60;99.90
1626;DHT22;806;48.770;9.156;2024-03-17T16:13:57;14.50;99.90
1626;DHT22;806;48.770;9.156;2024-03-17T16:16:33;14.60;99.90
1626;DHT22;806;48.770;9.156;2024-03-17T16:19:00;14.60;99.90
1626;DHT22;806;48.770;9.156;2024-03-17T16:21:35;14.70;99.90
1626;DHT22;806;48.770;9.156;2024-03-17T16:24:08;14.70;99.90
1626;DHT22;806;48.770;9.156;2024-03-17T16:26:37;14.70;99.90
1626;DHT22;806;48.770;9.156;2024-03-17T16:29:08;14.70;99.90
1626;DHT22;806;48.770;9.156;2024-03-17T16:31:47;14.60;99.90
1626;DHT22;806;48.770;9.156;2024-03-17T16:34:25;14.50;99.90
1626;DHT22;806;48.770;9.156;2024-03-17T16:37:07;14.60;99.90
1626;DHT22;806;48.770;9.156;2024-03-17T16:39:34;14.70;99.90
1626;DHT22;806;48.770;9.156;2024-03-17T16:42:09;14.70;99.90